Time;durP1;ratioP1;P1;durP2;ratioP2;P2;SDS_P1;SDS_P2;PMS_P1;PMS_P2;Temp;Humidity;BMP_temperature;BMP_pressure;BME280_temperature;BME280_humidity;BME280_pressure;Samples;Min_cycle;Max_cycle;Signal;HPM_P1;HPM_P2
2023/04/23 00:01:39;;;;;;;;;;;;;;;12.62;100.00;98126.69;5026358;28;19932;-59
2023/04/23 00:04:05;;;;;;;;;;;;;;;12.57;100.00;98118.53;5025934;28;20243;-59
2023/04/23 00:06:31;;;;;;;;;;;;;;;12.39;100.00;98118.78;5021879;28;19959;-59
2023/04/23 00:08:56;;;;;;;;;;;;;;;12.35;100.00;98115.69;5024082;28;20383;-59
2023/04/23 00:11:22;;;;;;;;;;;;;;;12.17;100.00;98118.50;5024097;28;20593;-59
2023/04/23 00:13:48;;;;;;;;;;;;;;;12.31;100.00;98107.38;5003182;28;20032;-59
2023/04/23 00:16:13;;;;;;;;;;;;;;;12.39;100.00;98109.16;5025771;28;20017;-60
2023/04/23 00:18:39;;;;;;;;;;;;;;;12.38;100.00;98107.53;5039821;28;20015;-59
2023/04/23 00:21:04;;;;;;;;;;;;;;;12.37;100.00;98105.09;5040696;28;19929;-60
2023/04/23 00:23:29;;;;;;;;;;;;;;;12.39;100.00;98105.72;5038816;28;20011;-59
2023/04/23 00:25:55;;;;;;;;;;;;;;;12.29;100.00;98106.75;5005527;28;20015;-59
2023/04/23 00:28:20;;;;;;;;;;;;;;;12.39;100.00;98110.94;5021330;28;20523;-61
2023/04/23 00:30:48;;;;;;;;;;;;;;;12.40;100.00;98107.38;5020077;28;19928;-59
2023/04/23 00:33:13;;;;;;;;;;;;;;;12.33;100.00;98101.22;5038618;28;19931;-59
2023/04/23 00:35:41;;;;;;;;;;;;;;;12.36;100.00;98108.66;5002975;28;19937;-59
2023/04/23 00:38:06;;;;;;;;;;;;;;;12.34;100.00;98106.25;5011277;28;20613;-59
2023/04/23 00:40:31;;;;;;;;;;;;;;;12.39;100.00;98097.91;5022674;28;19920;-59
2023/04/23 00:42:59;;;;;;;;;;;;;;;12.39;100.00;98095.31;5022158;28;20005;-59
2023/04/23 00:45:24;;;;;;;;;;;;;;;12.38;100.00;98098.91;5023236;28;19917;-59
2023/04/23 00:47:51;;;;;;;;;;;;;;;12.40;100.00;98096.94;5040388;28;19917;-59
2023/04/23 00:50:20;;;;;;;;;;;;;;;12.30;100.00;98086.69;5026408;28;19921;-59
2023/04/23 00:52:45;;;;;;;;;;;;;;;12.17;100.00;98100.25;5023068;28;20332;-59
2023/04/23 00:55:10;;;;;;;;;;;;;;;12.03;100.00;98098.34;5010977;28;19923;-59
2023/04/23 00:57:38;;;;;;;;;;;;;;;12.02;100.00;98087.09;5009600;28;20442;-59
2023/04/23 01:00:04;;;;;;;;;;;;;;;12.13;100.00;98093.75;5027718;28;19921;-59
2023/04/23 01:02:30;;;;;;;;;;;;;;;12.21;100.00;98092.91;5037551;28;20288;-59
2023/04/23 01:04:55;;;;;;;;;;;;;;;12.24;100.00;98092.59;5024976;28;19929;-59
2023/04/23 01:07:20;;;;;;;;;;;;;;;12.12;100.00;98094.75;5021115;28;19977;-60
2023/04/23 01:09:48;;;;;;;;;;;;;;;12.03;100.00;98082.69;5006904;28;20603;-59
2023/04/23 01:12:13;;;;;;;;;;;;;;;12.10;100.00;98081.06;5022982;28;19921;-60
2023/04/23 01:14:38;;;;;;;;;;;;;;;12.12;100.00;98089.56;5038898;28;20636;-60
2023/04/23 01:17:10;;;;;;;;;;;;;;;12.13;100.00;98083.34;5021250;28;19921;-60
2023/04/23 01:19:36;;;;;;;;;;;;;;;11.99;100.00;98081.41;5037169;28;19932;-60
2023/04/23 01:22:04;;;;;;;;;;;;;;;11.92;100.00;98086.50;5010071;28;19925;-60
2023/04/23 01:24:30;;;;;;;;;;;;;;;11.93;100.00;98086.31;5003426;28;19921;-60
2023/04/23 01:26:58;;;;;;;;;;;;;;;11.92;100.00;98086.50;5022769;28;19921;-61
2023/04/23 01:29:23;;;;;;;;;;;;;;;11.82;100.00;98078.00;5041316;28;19934;-60
2023/04/23 01:31:48;;;;;;;;;;;;;;;11.98;100.00;98083.22;5019556;28;20328;-60
2023/04/23 01:34:14;;;;;;;;;;;;;;;11.86;100.00;98084.50;5023426;28;20002;-60
2023/04/23 01:36:40;;;;;;;;;;;;;;;11.80;100.00;98088.59;5020419;28;21152;-60
2023/04/23 01:39:10;;;;;;;;;;;;;;;11.70;100.00;98091.38;5025007;28;19928;-60
2023/04/23 01:41:35;;;;;;;;;;;;;;;11.63;100.00;98087.00;5018582;28;20019;-60
2023/04/23 01:44:01;;;;;;;;;;;;;;;11.71;100.00;98077.38;5005915;28;20472;-60
2023/04/23 01:46:26;;;;;;;;;;;;;;;11.69;100.00;98084.53;5039832;28;20012;-60
2023/04/23 01:48:54;;;;;;;;;;;;;;;11.69;100.00;98084.53;5036259;28;20007;-60
2023/04/23 01:51:19;;;;;;;;;;;;;;;11.80;100.00;98087.78;5025004;28;19925;-60
2023/04/23 01:53:44;;;;;;;;;;;;;;;11.90;100.00;98083.22;5020628;28;19971;-60
2023/04/23 01:56:09;;;;;;;;;;;;;;;11.81;100.00;98081.56;5023086;28;19927;-60
2023/04/23 01:58:35;;;;;;;;;;;;;;;11.80;100.00;98077.38;5039966;28;19921;-60
2023/04/23 02:01:00;;;;;;;;;;;;;;;11.73;100.00;98080.59;5039477;28;20031;-60
2023/04/23 02:03:28;;;;;;;;;;;;;;;11.72;100.00;98084.22;5023104;28;20359;-60
2023/04/23 02:05:54;;;;;;;;;;;;;;;11.77;100.00;98075.88;5002492;28;19932;-59
2023/04/23 02:08:22;;;;;;;;;;;;;;;11.82;100.00;98078.00;5022809;28;19917;-60
2023/04/23 02:10:47;;;;;;;;;;;;;;;11.81;100.00;98079.81;5017849;28;20083;-59
2023/04/23 02:13:13;;;;;;;;;;;;;;;11.68;100.00;98079.47;4988289;28;19997;-61
2023/04/23 02:15:39;;;;;;;;;;;;;;;11.72;100.00;98075.59;5018987;28;20374;-60
2023/04/23 02:18:07;;;;;;;;;;;;;;;11.80;100.00;98088.59;5001083;28;19933;-60
2023/04/23 02:20:32;;;;;;;;;;;;;;;11.82;100.00;98098.84;5019969;28;19968;-60
2023/04/23 02:23:00;;;;;;;;;;;;;;;11.66;100.00;98095.28;5019947;28;20984;-61
2023/04/23 02:25:25;;;;;;;;;;;;;;;11.65;100.00;98090.25;5002911;28;19956;-60
2023/04/23 02:27:50;;;;;;;;;;;;;;;11.71;100.00;98089.56;4999453;28;19925;-60
2023/04/23 02:30:15;;;;;;;;;;;;;;;11.67;100.00;98089.09;5014728;28;20386;-60
2023/04/23 02:32:43;;;;;;;;;;;;;;;11.76;100.00;98082.09;5020249;28;20096;-60
2023/04/23 02:35:09;;;;;;;;;;;;;;;11.72;100.00;98086.81;5018021;28;20157;-60
2023/04/23 02:37:35;;;;;;;;;;;;;;;11.64;100.00;98086.81;5017333;28;20247;-60
2023/04/23 02:40:01;;;;;;;;;;;;;;;11.58;100.00;98078.84;5013236;28;20024;-60
2023/04/23 02:42:26;;;;;;;;;;;;;;;11.55;100.00;98079.97;5019804;28;20004;-61
2023/04/23 02:44:51;;;;;;;;;;;;;;;11.61;100.00;98081.94;5002143;28;19921;-60
2023/04/23 02:47:17;;;;;;;;;;;;;;;11.64;100.00;98083.41;5015969;28;21167;-60
2023/04/23 02:49:44;;;;;;;;;;;;;;;11.64;100.00;98078.19;5003130;28;20442;-60
2023/04/23 02:52:10;;;;;;;;;;;;;;;11.61;100.00;98068.09;5000107;28;19999;-60
2023/04/23 02:54:38;;;;;;;;;;;;;;;11.61;100.00;98074.13;5001780;28;19921;-60
2023/04/23 02:57:04;;;;;;;;;;;;;;;11.67;100.00;98068.25;5017318;28;19925;-60
2023/04/23 02:59:30;;;;;;;;;;;;;;;11.61;100.00;98065.50;5023219;28;19931;-60
2023/04/23 03:01:55;;;;;;;;;;;;;;;11.58;100.00;98064.03;5019552;28;19922;-60
2023/04/23 03:04:20;;;;;;;;;;;;;;;11.65;100.00;98067.63;5007138;28;19947;-60
2023/04/23 03:06:46;;;;;;;;;;;;;;;11.63;100.00;98071.38;5022227;28;19928;-61
2023/04/23 03:09:12;;;;;;;;;;;;;;;11.75;100.00;98067.44;5023512;28;19932;-60
2023/04/23 03:11:37;;;;;;;;;;;;;;;11.75;100.00;98064.81;5023619;28;20015;-60
2023/04/23 03:14:02;;;;;;;;;;;;;;;11.62;100.00;98067.13;5014998;28;19964;-60
2023/04/23 03:16:28;;;;;;;;;;;;;;;11.70;100.00;98067.09;5018247;28;19929;-60
2023/04/23 03:18:53;;;;;;;;;;;;;;;11.69;100.00;98065.50;5024303;28;19971;-60
2023/04/23 03:21:18;;;;;;;;;;;;;;;11.77;100.00;98062.06;5033940;28;19932;-60
2023/04/23 03:23:44;;;;;;;;;;;;;;;11.78;100.00;98071.50;5045795;28;20011;-60
2023/04/23 03:26:14;;;;;;;;;;;;;;;11.82;100.00;98067.59;5032173;28;19927;-60
2023/04/23 03:28:39;;;;;;;;;;;;;;;11.88;100.00;98059.94;5026847;28;19925;-60
2023/04/23 03:31:04;;;;;;;;;;;;;;;11.79;100.00;98054.88;5004949;28;19928;-60
2023/04/23 03:33:32;;;;;;;;;;;;;;;11.86;100.00;98055.84;5025022;28;20248;-60
2023/04/23 03:35:57;;;;;;;;;;;;;;;11.93;100.00;98064.66;5025071;28;19920;-60
2023/04/23 03:38:22;;;;;;;;;;;;;;;11.97;100.00;98065.94;5005455;28;20294;-60
2023/04/23 03:40:48;;;;;;;;;;;;;;;11.65;100.00;98033.75;5041114;28;19929;-60
2023/04/23 03:43:13;;;;;;;;;;;;;;;11.91;100.00;98057.00;5006329;28;19927;-60
2023/04/23 03:45:38;;;;;;;;;;;;;;;11.94;100.00;98063.69;5027792;28;19935;-61
2023/04/23 03:48:03;;;;;;;;;;;;;;;11.95;100.00;98070.50;5023307;28;20049;-60
2023/04/23 03:50:33;;;;;;;;;;;;;;;11.85;100.00;98062.88;5023477;28;20007;-60
2023/04/23 03:52:58;;;;;;;;;;;;;;;11.66;100.00;98073.63;5028959;28;19960;-58
2023/04/23 03:55:23;;;;;;;;;;;;;;;11.63;100.00;98069.56;5022338;28;19956;-59
2023/04/23 03:57:49;;;;;;;;;;;;;;;11.73;100.00;98067.59;5040285;28;19917;-59
2023/04/23 04:00:14;;;;;;;;;;;;;;;11.76;100.00;98065.66;5022059;28;19925;-59
2023/04/23 04:02:39;;;;;;;;;;;;;;;11.81;100.00;98079.81;5025755;28;20403;-59
2023/04/23 04:05:05;;;;;;;;;;;;;;;11.77;100.00;98077.69;5008870;28;20528;-59
2023/04/23 04:07:30;;;;;;;;;;;;;;;11.70;100.00;98067.94;4987858;28;20329;-58
2023/04/23 04:09:56;;;;;;;;;;;;;;;11.73;100.00;98069.38;5022884;28;19979;-61
2023/04/23 04:12:21;;;;;;;;;;;;;;;11.76;100.00;98066.47;5018412;28;19925;-61
2023/04/23 04:14:46;;;;;;;;;;;;;;;11.77;100.00;98059.44;5020119;28;19940;-60
2023/04/23 04:17:14;;;;;;;;;;;;;;;11.88;100.00;98059.09;5007132;28;19921;-61
2023/04/23 04:19:39;;;;;;;;;;;;;;;11.93;100.00;98056.84;5004479;28;19925;-60
2023/04/23 04:22:05;;;;;;;;;;;;;;;11.93;100.00;98059.44;5002246;28;19975;-61
2023/04/23 04:24:31;;;;;;;;;;;;;;;11.92;100.00;98061.25;5024028;28;19925;-61
2023/04/23 04:27:00;;;;;;;;;;;;;;;11.95;100.00;98064.50;4985824;28;20378;-60
2023/04/23 04:29:25;;;;;;;;;;;;;;;11.89;100.00;98065.94;5003043;28;20015;-60
2023/04/23 04:31:54;;;;;;;;;;;;;;;11.78;100.00;98066.31;5001704;28;19929;-60
2023/04/23 04:34:22;;;;;;;;;;;;;;;11.76;100.00;98068.25;5008578;28;20303;-61
2023/04/23 04:36:47;;;;;;;;;;;;;;;11.68;100.00;98066.47;4991376;28;19921;-60
2023/04/23 04:39:13;;;;;;;;;;;;;;;11.65;100.00;98057.19;5003800;28;19927;-60
2023/04/23 04:41:39;;;;;;;;;;;;;;;11.70;100.00;98057.53;5018119;28;19928;-61
2023/04/23 04:44:06;;;;;;;;;;;;;;;11.71;100.00;98053.13;4983739;28;20292;-60
2023/04/23 04:46:33;;;;;;;;;;;;;;;11.61;100.00;98060.28;5003890;28;19960;-61
2023/04/23 04:48:59;;;;;;;;;;;;;;;11.55;100.00;98056.56;5002754;28;19925;-60
2023/04/23 04:51:27;;;;;;;;;;;;;;;11.63;100.00;98048.75;5003999;28;20650;-60
2023/04/23 04:53:53;;;;;;;;;;;;;;;11.56;100.00;98026.94;5017817;28;20050;-60
2023/04/23 04:56:18;;;;;;;;;;;;;;;11.74;100.00;98055.41;5024594;28;19929;-60
2023/04/23 04:58:43;;;;;;;;;;;;;;;11.59;100.00;98049.22;5004405;28;19928;-61
2023/04/23 05:01:09;;;;;;;;;;;;;;;11.51;100.00;98056.06;5021483;28;19925;-60
2023/04/23 05:03:35;;;;;;;;;;;;;;;11.65;100.00;98048.59;5002982;28;19921;-60
2023/04/23 05:06:01;;;;;;;;;;;;;;;11.60;100.00;98014.41;5012887;28;19932;-60
2023/04/23 05:08:26;;;;;;;;;;;;;;;11.82;100.00;98052.75;5021724;28;20378;-60
2023/04/23 05:10:53;;;;;;;;;;;;;;;11.92;100.00;98052.63;5021892;28;19928;-61
2023/04/23 05:13:18;;;;;;;;;;;;;;;11.83;100.00;98053.59;5041728;28;19928;-59
2023/04/23 05:15:44;;;;;;;;;;;;;;;11.74;100.00;98052.78;5020497;28;19995;-61
2023/04/23 05:18:10;;;;;;;;;;;;;;;11.84;100.00;98048.19;5022824;28;19952;-60
2023/04/23 05:20:36;;;;;;;;;;;;;;;11.88;100.00;98059.09;5037673;28;20540;-60
2023/04/23 05:23:01;;;;;;;;;;;;;;;12.00;100.00;98059.59;5010815;28;19921;-60
2023/04/23 05:25:28;;;;;;;;;;;;;;;11.69;100.00;98061.09;5001712;28;20023;-60
2023/04/23 05:27:55;;;;;;;;;;;;;;;11.65;100.00;98078.03;5010094;28;19948;-60
2023/04/23 05:30:21;;;;;;;;;;;;;;;11.68;100.00;98072.50;5038206;28;19921;-60
2023/04/23 05:32:46;;;;;;;;;;;;;;;11.54;100.00;98078.38;5025474;28;20423;-60
2023/04/23 05:35:13;;;;;;;;;;;;;;;11.61;100.00;98074.13;5038922;28;20047;-60
2023/04/23 05:37:39;;;;;;;;;;;;;;;11.69;100.00;98076.72;5008089;28;20493;-61
2023/04/23 05:40:06;;;;;;;;;;;;;;;11.77;100.00;98082.91;5010781;28;19925;-60
2023/04/23 05:42:31;;;;;;;;;;;;;;;11.82;100.00;98078.00;5038174;28;20390;-60
2023/04/23 05:44:59;;;;;;;;;;;;;;;11.81;100.00;98076.38;5024511;28;19931;-61
2023/04/23 05:47:24;;;;;;;;;;;;;;;11.89;100.00;98074.56;5005042;28;19925;-61
2023/04/23 05:49:52;;;;;;;;;;;;;;;11.91;100.00;98069.22;5020007;28;21022;-61
2023/04/23 05:52:17;;;;;;;;;;;;;;;12.00;100.00;98068.22;5004857;28;19963;-60
2023/04/23 05:54:43;;;;;;;;;;;;;;;12.07;100.00;98068.38;5021533;28;19960;-59
2023/04/23 05:57:10;;;;;;;;;;;;;;;12.16;100.00;98079.59;5039038;28;19972;-59
2023/04/23 05:59:36;;;;;;;;;;;;;;;12.20;100.00;98068.66;5016856;28;19967;-60
2023/04/23 06:02:01;;;;;;;;;;;;;;;12.04;100.00;98066.09;5023270;28;19917;-60
2023/04/23 06:04:26;;;;;;;;;;;;;;;12.05;100.00;98068.53;5019531;28;20011;-59
2023/04/23 06:06:54;;;;;;;;;;;;;;;12.02;100.00;98074.09;5037364;28;19936;-60
2023/04/23 06:09:19;;;;;;;;;;;;;;;11.81;100.00;98074.59;5022080;28;19948;-59
2023/04/23 06:11:44;;;;;;;;;;;;;;;11.83;100.00;98075.25;5018466;28;20490;-60
2023/04/23 06:14:10;;;;;;;;;;;;;;;11.80;100.00;98072.16;5023650;28;20312;-61
2023/04/23 06:16:35;;;;;;;;;;;;;;;11.63;100.00;98072.19;5041573;28;20010;-61
2023/04/23 06:19:03;;;;;;;;;;;;;;;11.67;100.00;98080.47;5019102;28;19925;-59
2023/04/23 06:21:28;;;;;;;;;;;;;;;11.67;100.00;98083.09;5009447;28;19924;-60
2023/04/23 06:23:53;;;;;;;;;;;;;;;11.58;100.00;98087.47;5018980;28;19927;-61
2023/04/23 06:26:19;;;;;;;;;;;;;;;11.40;100.00;98055.59;5035761;28;20415;-61
2023/04/23 06:28:45;;;;;;;;;;;;;;;11.70;100.00;98093.16;5038770;28;19959;-60
2023/04/23 06:31:10;;;;;;;;;;;;;;;11.64;100.00;98084.19;5023486;28;19921;-61
2023/04/23 06:33:36;;;;;;;;;;;;;;;11.60;100.00;98097.72;5034204;28;19956;-59
2023/04/23 06:36:04;;;;;;;;;;;;;;;11.63;100.00;98087.81;5021188;28;20398;-60
2023/04/23 06:38:30;;;;;;;;;;;;;;;11.63;100.00;98081.78;4997626;28;19970;-60
2023/04/23 06:40:55;;;;;;;;;;;;;;;11.57;100.00;98085.84;5005646;28;19925;-59
2023/04/23 06:43:21;;;;;;;;;;;;;;;11.57;100.00;98085.84;5022976;28;20398;-60
2023/04/23 06:45:46;;;;;;;;;;;;;;;11.54;100.00;98086.19;5021441;28;20008;-60
2023/04/23 06:48:11;;;;;;;;;;;;;;;11.60;100.00;98082.09;5024328;28;19921;-60
2023/04/23 06:50:37;;;;;;;;;;;;;;;11.63;100.00;98080.00;5022563;28;19929;-59
2023/04/23 06:53:02;;;;;;;;;;;;;;;11.64;100.00;98070.38;5019898;28;19925;-59
2023/04/23 06:55:28;;;;;;;;;;;;;;;11.67;100.00;98065.66;5021857;28;19991;-59
2023/04/23 06:57:53;;;;;;;;;;;;;;;11.74;100.00;98058.81;5021886;28;19936;-60
2023/04/23 07:00:18;;;;;;;;;;;;;;;11.89;100.00;98047.72;5022952;28;19985;-59
2023/04/23 07:02:45;;;;;;;;;;;;;;;11.96;100.00;98048.69;5001988;28;20467;-59
2023/04/23 07:05:10;;;;;;;;;;;;;;;12.03;100.00;98046.22;5040263;28;19929;-60
2023/04/23 07:07:37;;;;;;;;;;;;;;;12.13;100.00;98054.66;5021369;28;19947;-59
2023/04/23 07:10:03;;;;;;;;;;;;;;;12.21;100.00;98046.00;5028678;28;19923;-60
2023/04/23 07:12:30;;;;;;;;;;;;;;;12.25;100.00;98048.13;5037813;28;20550;-59
2023/04/23 07:14:58;;;;;;;;;;;;;;;12.30;100.00;98055.41;5027916;28;20685;-60
2023/04/23 07:17:23;;;;;;;;;;;;;;;12.31;100.00;98057.84;5021689;28;20032;-60
2023/04/23 07:19:49;;;;;;;;;;;;;;;12.06;100.00;98022.44;5020841;28;19928;-60
2023/04/23 07:22:15;;;;;;;;;;;;;;;12.19;100.00;98063.59;5043529;28;19925;-59
2023/04/23 07:24:40;;;;;;;;;;;;;;;12.16;100.00;98062.16;5037051;28;19928;-60
2023/04/23 07:27:05;;;;;;;;;;;;;;;12.22;100.00;98053.66;5006665;28;20568;-59
2023/04/23 07:29:30;;;;;;;;;;;;;;;12.15;100.00;98054.50;5042304;28;20741;-61
2023/04/23 07:31:58;;;;;;;;;;;;;;;12.33;100.00;98049.88;5022957;28;19947;-60
2023/04/23 07:34:24;;;;;;;;;;;;;;;12.48;100.00;98052.56;5037060;28;19960;-60
2023/04/23 07:36:49;;;;;;;;;;;;;;;12.54;100.00;98054.53;5023693;28;20027;-60
2023/04/23 07:39:14;;;;;;;;;;;;;;;12.59;100.00;98054.00;5026776;28;19920;-59
2023/04/23 07:41:40;;;;;;;;;;;;;;;12.64;100.00;98054.28;5020806;28;19924;-59
2023/04/23 07:44:05;;;;;;;;;;;;;;;12.79;100.00;98049.16;5009334;28;19928;-60
2023/04/23 07:46:30;;;;;;;;;;;;;;;12.87;100.00;98046.50;5027617;28;19956;-60
2023/04/23 07:48:56;;;;;;;;;;;;;;;12.95;100.00;98046.44;5040585;28;20482;-60
2023/04/23 07:51:25;;;;;;;;;;;;;;;13.00;100.00;98053.75;5036526;28;19920;-59
2023/04/23 07:53:53;;;;;;;;;;;;;;;13.06;100.00;98053.06;5027273;28;19920;-59
2023/04/23 07:56:18;;;;;;;;;;;;;;;13.22;100.00;98054.75;5037689;28;19929;-60
2023/04/23 07:58:43;;;;;;;;;;;;;;;13.36;100.00;98061.00;5039536;28;19921;-60
2023/04/23 08:01:09;;;;;;;;;;;;;;;13.35;100.00;98059.41;5022091;28;19924;-59
2023/04/23 08:03:36;;;;;;;;;;;;;;;13.36;100.00;98058.41;5009299;28;19917;-59
2023/04/23 08:06:03;;;;;;;;;;;;;;;13.44;100.00;98061.75;5040615;28;19986;-59
2023/04/23 08:08:28;;;;;;;;;;;;;;;13.39;100.00;98060.66;5023923;28;20038;-61
2023/04/23 08:10:56;;;;;;;;;;;;;;;13.30;100.00;98059.88;5028304;28;20376;-59
2023/04/23 08:13:21;;;;;;;;;;;;;;;13.30;100.00;98064.31;5007351;28;19947;-60
2023/04/23 08:15:47;;;;;;;;;;;;;;;13.24;100.00;98057.97;5006547;28;20556;-60
2023/04/23 08:18:13;;;;;;;;;;;;;;;13.13;100.00;98064.44;5005978;28;19956;-59
2023/04/23 08:20:38;;;;;;;;;;;;;;;13.04;100.00;98053.22;5028463;28;20488;-60
2023/04/23 08:23:06;;;;;;;;;;;;;;;13.11;100.00;98055.97;5025761;28;20426;-60
2023/04/23 08:25:34;;;;;;;;;;;;;;;13.18;100.00;98056.88;5028965;28;20011;-60
2023/04/23 08:27:59;;;;;;;;;;;;;;;13.17;100.00;98055.25;5038712;28;19970;-61
2023/04/23 08:30:27;;;;;;;;;;;;;;;13.15;100.00;98064.25;5022700;28;19925;-60
2023/04/23 08:32:52;;;;;;;;;;;;;;;13.17;100.00;98060.47;5011751;28;19928;-60
2023/04/23 08:35:18;;;;;;;;;;;;;;;13.17;100.00;98064.88;5018089;28;19925;-60
2023/04/23 08:37:43;;;;;;;;;;;;;;;13.16;100.00;98058.03;5011429;28;19920;-61
2023/04/23 08:40:09;;;;;;;;;;;;;;;13.25;100.00;98063.03;5019578;28;19925;-61
2023/04/23 08:42:44;;;;;;;;;;;;;;;13.30;100.00;98059.88;5044157;28;19920;-61
2023/04/23 08:45:10;;;;;;;;;;;;;;;13.34;100.00;98061.19;5039527;28;19960;-60
2023/04/23 08:47:37;;;;;;;;;;;;;;;13.38;100.00;98064.25;4980835;28;19928;-60
2023/04/23 08:50:04;;;;;;;;;;;;;;;13.44;100.00;98068.78;5024148;28;19975;-62
2023/04/23 08:52:32;;;;;;;;;;;;;;;13.44;100.00;98069.59;5016108;28;20016;-60
2023/04/23 08:55:00;;;;;;;;;;;;;;;13.35;100.00;98073.25;5029545;28;19917;-60
2023/04/23 08:57:26;;;;;;;;;;;;;;;13.46;100.00;98072.03;5012434;28;20005;-60
2023/04/23 08:59:54;;;;;;;;;;;;;;;13.42;100.00;98071.56;5011171;28;19921;-61
2023/04/23 09:02:19;;;;;;;;;;;;;;;13.44;100.00;98066.97;5026348;28;19956;-60
2023/04/23 09:04:44;;;;;;;;;;;;;;;13.36;100.00;98068.84;5023012;28;20388;-60
2023/04/23 09:07:11;;;;;;;;;;;;;;;13.42;100.00;98076.78;5022144;28;21646;-61
2023/04/23 09:09:38;;;;;;;;;;;;;;;13.48;100.00;98072.66;5014844;28;19971;-61
2023/04/23 09:12:03;;;;;;;;;;;;;;;13.56;100.00;98062.16;5035709;28;20737;-62
2023/04/23 09:14:29;;;;;;;;;;;;;;;13.56;100.00;98059.56;5036236;28;19940;-62
2023/04/23 09:16:54;;;;;;;;;;;;;;;13.58;100.00;98059.34;5005009;28;19947;-60
2023/04/23 09:19:23;;;;;;;;;;;;;;;13.52;100.00;98053.03;5034405;28;19925;-60
2023/04/23 09:21:49;;;;;;;;;;;;;;;13.54;100.00;98048.44;5023465;28;20420;-60
2023/04/23 09:24:15;;;;;;;;;;;;;;;13.57;100.00;98048.09;5017268;28;19999;-61
2023/04/23 09:26:45;;;;;;;;;;;;;;;13.76;100.00;98046.78;5022141;28;19928;-60
2023/04/23 09:29:22;;;;;;;;;;;;;;;13.95;100.00;98042.03;5021847;28;19924;-61
2023/04/23 09:31:51;;;;;;;;;;;;;;;14.31;100.00;98033.41;5006235;28;19929;-60
2023/04/23 09:34:17;;;;;;;;;;;;;;;14.61;100.00;98032.41;5040000;28;20228;-60
2023/04/23 09:36:43;;;;;;;;;;;;;;;14.89;100.00;98029.06;5024915;28;19983;-61
2023/04/23 09:39:13;;;;;;;;;;;;;;;15.08;100.00;98024.22;5019907;28;20443;-60
2023/04/23 09:41:38;;;;;;;;;;;;;;;15.25;100.00;98016.91;5023242;28;19921;-60
2023/04/23 09:44:03;;;;;;;;;;;;;;;14.94;100.00;98020.66;5038976;28;19920;-60
2023/04/23 09:46:35;;;;;;;;;;;;;;;14.71;100.00;98023.44;5008066;28;19948;-60
2023/04/23 09:49:02;;;;;;;;;;;;;;;14.90;100.00;98022.03;5019889;28;19921;-59
2023/04/23 09:51:28;;;;;;;;;;;;;;;15.03;100.00;98022.16;5025938;28;20508;-60
2023/04/23 09:53:53;;;;;;;;;;;;;;;15.22;99.88;98012.03;5035409;28;20007;-60
2023/04/23 09:56:20;;;;;;;;;;;;;;;15.48;100.00;98009.63;5006592;28;19955;-60
2023/04/23 09:58:45;;;;;;;;;;;;;;;15.74;86.86;98013.47;5021278;28;19929;-61
2023/04/23 10:01:11;;;;;;;;;;;;;;;16.12;81.23;98006.00;5006178;28;20026;-60
2023/04/23 10:03:40;;;;;;;;;;;;;;;16.30;77.56;97997.59;5020727;28;19925;-60
2023/04/23 10:06:12;;;;;;;;;;;;;;;16.39;81.39;97997.41;5023616;28;20272;-60
2023/04/23 10:08:38;;;;;;;;;;;;;;;16.50;80.62;97999.47;5024384;28;19928;-62
2023/04/23 10:11:03;;;;;;;;;;;;;;;16.63;82.29;97998.69;5024374;28;20387;-60
2023/04/23 10:13:29;;;;;;;;;;;;;;;16.67;79.87;97994.69;5038950;28;19925;-59
2023/04/23 10:15:55;;;;;;;;;;;;;;;16.63;81.15;97999.53;5002678;28;20059;-60
2023/04/23 10:18:20;;;;;;;;;;;;;;;16.50;82.70;98002.91;5021159;28;19913;-61
2023/04/23 10:20:48;;;;;;;;;;;;;;;16.52;89.15;97997.47;5040564;28;19928;-60
2023/04/23 10:23:16;;;;;;;;;;;;;;;16.07;88.86;97999.72;5022213;28;19917;-60
2023/04/23 10:25:41;;;;;;;;;;;;;;;16.11;87.54;97995.69;5022743;28;20414;-60
2023/04/23 10:28:10;;;;;;;;;;;;;;;16.08;88.48;97990.84;5007858;28;19917;-60
2023/04/23 10:30:35;;;;;;;;;;;;;;;16.10;90.44;97988.84;5017390;28;19921;-59
2023/04/23 10:33:01;;;;;;;;;;;;;;;16.03;89.62;97986.19;5006135;28;19944;-60
2023/04/23 10:35:26;;;;;;;;;;;;;;;16.05;86.85;97986.81;5022674;28;19947;-59
2023/04/23 10:37:54;;;;;;;;;;;;;;;16.27;85.78;97987.50;5009083;28;19921;-59
2023/04/23 10:40:20;;;;;;;;;;;;;;;16.45;87.57;97983.53;5019991;28;20442;-59
2023/04/23 10:42:46;;;;;;;;;;;;;;;16.44;84.51;97979.28;5023473;28;19992;-60
2023/04/23 10:45:13;;;;;;;;;;;;;;;16.41;81.28;97970.00;5020633;28;20383;-59
2023/04/23 10:47:40;;;;;;;;;;;;;;;16.53;81.62;97968.38;5025686;28;19920;-59
2023/04/23 10:50:25;;;;;;;;;;;;;;;16.75;81.31;97968.22;5022283;28;19964;-62
2023/04/23 10:52:52;;;;;;;;;;;;;;;16.71;80.79;97946.03;5009439;28;19917;-59
2023/04/23 10:55:18;;;;;;;;;;;;;;;17.04;78.43;97958.38;5020021;28;20012;-60
2023/04/23 10:58:03;;;;;;;;;;;;;;;17.06;79.50;97948.50;5027305;28;19929;-59
2023/04/23 11:00:30;;;;;;;;;;;;;;;17.19;76.48;97953.72;5035863;28;19924;-60
2023/04/23 11:02:55;;;;;;;;;;;;;;;17.09;77.10;97948.09;5008238;28;19917;-60
2023/04/23 11:05:21;;;;;;;;;;;;;;;17.21;77.60;97948.28;5024301;28;19920;-60
2023/04/23 11:08:05;;;;;;;;;;;;;;;17.24;76.43;97950.50;5002491;28;19991;-59
2023/04/23 11:10:31;;;;;;;;;;;;;;;17.10;76.05;97939.19;5008958;28;19921;-59
2023/04/23 11:12:57;;;;;;;;;;;;;;;17.02;75.19;97942.84;5023608;28;19951;-59
2023/04/23 11:15:22;;;;;;;;;;;;;;;17.07;74.07;97932.53;5022131;28;20103;-60
2023/04/23 11:17:50;;;;;;;;;;;;;;;17.22;73.62;97931.50;5003281;28;19971;-60
2023/04/23 11:20:19;;;;;;;;;;;;;;;17.37;73.28;97936.53;5033858;28;19980;-59
2023/04/23 11:22:45;;;;;;;;;;;;;;;17.37;71.81;97926.84;5021685;28;19935;-60
2023/04/23 11:25:13;;;;;;;;;;;;;;;17.50;71.75;97933.88;5024561;28;19921;-60
2023/04/23 11:27:39;;;;;;;;;;;;;;;17.63;69.34;97923.34;5023451;28;19955;-60
2023/04/23 11:30:07;;;;;;;;;;;;;;;17.85;70.58;97921.28;5019970;28;19927;-60
2023/04/23 11:32:33;;;;;;;;;;;;;;;17.76;68.73;97911.16;5024807;28;19924;-59
2023/04/23 11:34:59;;;;;;;;;;;;;;;17.66;67.88;97922.13;5018837;28;20296;-59
2023/04/23 11:37:24;;;;;;;;;;;;;;;17.67;67.68;97915.88;5006642;28;19976;-60
2023/04/23 11:39:50;;;;;;;;;;;;;;;17.63;68.46;97914.63;5041597;28;19924;-60
2023/04/23 11:42:16;;;;;;;;;;;;;;;17.75;68.26;97909.56;5022866;28;20392;-59
2023/04/23 11:44:42;;;;;;;;;;;;;;;17.95;68.91;97912.16;5023997;28;19938;-59
2023/04/23 11:47:09;;;;;;;;;;;;;;;18.15;68.03;97909.44;5038844;28;19916;-59
2023/04/23 11:49:36;;;;;;;;;;;;;;;18.18;66.20;97906.34;5024443;28;20679;-59
2023/04/23 11:52:01;;;;;;;;;;;;;;;18.23;65.60;97902.09;5024445;28;20478;-59
2023/04/23 11:54:28;;;;;;;;;;;;;;;18.28;66.17;97901.44;5044368;28;19921;-60
2023/04/23 11:56:54;;;;;;;;;;;;;;;18.26;65.04;97890.34;5008057;28;20043;-59
2023/04/23 11:59:19;;;;;;;;;;;;;;;18.20;65.56;97893.81;5021222;28;20414;-59
2023/04/23 12:01:45;;;;;;;;;;;;;;;18.25;65.22;97888.69;5028928;28;19921;-60
2023/04/23 12:04:15;;;;;;;;;;;;;;;18.33;63.77;97875.31;5004564;28;19999;-60
2023/04/23 12:06:41;;;;;;;;;;;;;;;18.30;65.85;97869.66;5009549;28;19932;-61
2023/04/23 12:09:07;;;;;;;;;;;;;;;18.37;64.18;97870.44;4988176;28;19940;-59
2023/04/23 12:11:33;;;;;;;;;;;;;;;18.44;63.83;97872.00;5007001;28;19920;-59
2023/04/23 12:13:59;;;;;;;;;;;;;;;18.54;62.42;97862.81;5003519;28;19932;-60
2023/04/23 12:16:34;;;;;;;;;;;;;;;18.61;62.46;97848.56;4986424;28;19921;-59
2023/04/23 12:19:00;;;;;;;;;;;;;;;18.62;62.52;97852.03;4989379;28;19999;-59
2023/04/23 12:21:27;;;;;;;;;;;;;;;18.48;60.62;97851.31;5007198;28;19945;-59
2023/04/23 12:23:55;;;;;;;;;;;;;;;18.50;60.86;97844.00;5002949;28;19925;-59
2023/04/23 12:26:23;;;;;;;;;;;;;;;18.46;61.35;97839.41;4995084;28;19929;-61
2023/04/23 12:28:52;;;;;;;;;;;;;;;18.23;61.11;97817.91;4990060;28;19921;-59
2023/04/23 12:31:24;;;;;;;;;;;;;;;18.54;59.98;97834.66;5003878;28;19921;-60
2023/04/23 12:34:16;;;;;;;;;;;;;;;18.81;60.19;97830.00;5016670;28;19995;-59